sensor_id;sensor_type;location;lat;lon;timestamp;pressure;altitude;pressure_sealevel;temperature;humidity
79729;BME280;69218;52.132;5.418;2023-09-12T00:00:37;101442.53;;;19.46;87.35
79729;BME280;69218;52.132;5.418;2023-09-12T00:03:04;101445.03;;;19.48;85.50
79729;BME280;69218;52.132;5.418;2023-09-12T00:05:30;101432.56;;;19.48;84.94
79729;BME280;69218;52.132;5.418;2023-09-12T00:07:57;101436.88;;;19.49;86.05
79729;BME280;69218;52.132;5.418;2023-09-12T00:10:23;101431.72;;;19.48;84.18
79729;BME280;69218;52.132;5.418;2023-09-12T00:12:49;101431.91;;;19.46;84.39
79729;BME280;69218;52.132;5.418;2023-09-12T00:15:17;101428.56;;;19.44;86.17
79729;BME280;69218;52.132;5.418;2023-09-12T00:17:46;101416.44;;;19.42;84.91
79729;BME280;69218;52.132;5.418;2023-09-12T00:20:12;101420.75;;;19.35;85.01
79729;BME280;69218;52.132;5.418;2023-09-12T00:22:39;101418.56;;;19.30;88.54
79729;BME280;69218;52.132;5.418;2023-09-12T00:25:05;101421.56;;;19.19;89.14
79729;BME280;69218;52.132;5.418;2023-09-12T00:27:32;101422.06;;;19.14;87.92
79729;BME280;69218;52.132;5.418;2023-09-12T00:29:58;101413.06;;;19.15;89.52
79729;BME280;69218;52.132;5.418;2023-09-12T00:32:25;101409.25;;;19.10;89.11
79729;BME280;69218;52.132;5.418;2023-09-12T00:34:51;101404.28;;;19.07;89.41
79729;BME280;69218;52.132;5.418;2023-09-12T00:37:18;101412.72;;;19.02;85.95
79729;BME280;69218;52.132;5.418;2023-09-12T00:39:44;101411.75;;;19.03;86.06
79729;BME280;69218;52.132;5.418;2023-09-12T00:42:11;101412.88;;;19.01;87.42
79729;BME280;69218;52.132;5.418;2023-09-12T00:44:37;101423.03;;;18.97;88.07
79729;BME280;69218;52.132;5.418;2023-09-12T00:47:04;101422.50;;;18.93;87.30
79729;BME280;69218;52.132;5.418;2023-09-12T00:49:32;101425.16;;;18.93;86.30
79729;BME280;69218;52.132;5.418;2023-09-12T00:51:59;101427.47;;;18.88;87.28
79729;BME280;69218;52.132;5.418;2023-09-12T00:54:28;101422.50;;;18.85;86.99
79729;BME280;69218;52.132;5.418;2023-09-12T00:56:54;101420.84;;;18.84;85.91
79729;BME280;69218;52.132;5.418;2023-09-12T00:59:21;101427.16;;;18.83;87.84
79729;BME280;69218;52.132;5.418;2023-09-12T01:01:48;101424.78;;;18.80;86.01
79729;BME280;69218;52.132;5.418;2023-09-12T01:04:15;101426.44;;;18.81;84.97
79729;BME280;69218;52.132;5.418;2023-09-12T01:07:00;101427.63;;;18.79;84.54
79729;BME280;69218;52.132;5.418;2023-09-12T01:09:26;101424.13;;;18.78;86.78
79729;BME280;69218;52.132;5.418;2023-09-12T01:11:53;101422.78;;;18.74;84.42
79729;BME280;69218;52.132;5.418;2023-09-12T01:14:20;101427.25;;;18.74;84.56
79729;BME280;69218;52.132;5.418;2023-09-12T01:16:46;101426.75;;;18.70;85.10
79729;BME280;69218;52.132;5.418;2023-09-12T01:19:14;101418.41;;;18.65;85.48
79729;BME280;69218;52.132;5.418;2023-09-12T01:22:00;101415.09;;;18.63;86.12
79729;BME280;69218;52.132;5.418;2023-09-12T01:24:45;101425.88;;;18.61;86.18
79729;BME280;69218;52.132;5.418;2023-09-12T01:27:30;101425.69;;;18.55;87.63
79729;BME280;69218;52.132;5.418;2023-09-12T01:30:02;101425.00;;;18.53;86.97
79729;BME280;69218;52.132;5.418;2023-09-12T01:32:31;101428.81;;;18.50;88.24
79729;BME280;69218;52.132;5.418;2023-09-12T01:34:58;101427.44;;;18.46;88.82
79729;BME280;69218;52.132;5.418;2023-09-12T01:37:25;101424.97;;;18.45;88.28
79729;BME280;69218;52.132;5.418;2023-09-12T01:39:52;101420.81;;;18.42;85.97
79729;BME280;69218;52.132;5.418;2023-09-12T01:42:20;101424.28;;;18.43;85.71
79729;BME280;69218;52.132;5.418;2023-09-12T01:44:50;101421.31;;;18.46;86.30
79729;BME280;69218;52.132;5.418;2023-09-12T01:47:17;101412.69;;;18.44;87.10
79729;BME280;69218;52.132;5.418;2023-09-12T01:49:46;101412.03;;;18.42;86.46
79729;BME280;69218;52.132;5.418;2023-09-12T01:52:14;101415.97;;;18.37;86.02
79729;BME280;69218;52.132;5.418;2023-09-12T01:54:42;101415.97;;;18.37;85.88
79729;BME280;69218;52.132;5.418;2023-09-12T01:57:09;101414.78;;;18.32;88.46
79729;BME280;69218;52.132;5.418;2023-09-12T01:59:36;101414.44;;;18.27;87.06
79729;BME280;69218;52.132;5.418;2023-09-12T02:02:02;101413.75;;;18.25;86.68
79729;BME280;69218;52.132;5.418;2023-09-12T02:04:29;101418.91;;;18.26;85.37
79729;BME280;69218;52.132;5.418;2023-09-12T02:06:56;101405.66;;;18.26;86.90
79729;BME280;69218;52.132;5.418;2023-09-12T02:09:24;101412.56;;;18.19;89.61
79729;BME280;69218;52.132;5.418;2023-09-12T02:11:51;101409.19;;;18.09;90.82
79729;BME280;69218;52.132;5.418;2023-09-12T02:14:17;101410.50;;;18.05;87.95
79729;BME280;69218;52.132;5.418;2023-09-12T02:16:44;101409.19;;;18.09;87.52
79729;BME280;69218;52.132;5.418;2023-09-12T02:19:11;101409.84;;;18.11;89.79
79729;BME280;69218;52.132;5.418;2023-09-12T02:21:38;101400.22;;;18.10;86.86
79729;BME280;69218;52.132;5.418;2023-09-12T02:24:05;101406.91;;;18.14;87.11
79729;BME280;69218;52.132;5.418;2023-09-12T02:26:31;101393.63;;;18.14;89.09
79729;BME280;69218;52.132;5.418;2023-09-12T02:29:03;101396.59;;;18.11;89.88
79729;BME280;69218;52.132;5.418;2023-09-12T02:31:32;101404.53;;;18.11;88.21
79729;BME280;69218;52.132;5.418;2023-09-12T02:33:58;101401.22;;;18.09;88.45
79729;BME280;69218;52.132;5.418;2023-09-12T02:36:25;101403.22;;;18.07;89.24
79729;BME280;69218;52.132;5.418;2023-09-12T02:38:52;101408.00;;;18.03;88.79
79729;BME280;69218;52.132;5.418;2023-09-12T02:41:18;101410.81;;;18.02;88.61
79729;BME280;69218;52.132;5.418;2023-09-12T02:43:45;101414.44;;;18.01;88.06
79729;BME280;69218;52.132;5.418;2023-09-12T02:46:11;101416.44;;;17.99;89.32
79729;BME280;69218;52.132;5.418;2023-09-12T02:48:38;101414.78;;;17.98;87.20
79729;BME280;69218;52.132;5.418;2023-09-12T02:51:04;101413.09;;;17.97;88.66
79729;BME280;69218;52.132;5.418;2023-09-12T02:53:31;101410.59;;;17.95;88.17
79729;BME280;69218;52.132;5.418;2023-09-12T02:55:57;101414.06;;;17.96;88.02
79729;BME280;69218;52.132;5.418;2023-09-12T02:58:24;101423.19;;;17.93;89.38
79729;BME280;69218;52.132;5.418;2023-09-12T03:00:50;101414.19;;;17.86;90.57
79729;BME280;69218;52.132;5.418;2023-09-12T03:03:20;101409.50;;;17.80;89.28
79729;BME280;69218;52.132;5.418;2023-09-12T03:05:47;101414.66;;;17.81;90.13
79729;BME280;69218;52.132;5.418;2023-09-12T03:08:14;101411.00;;;17.82;88.33
79729;BME280;69218;52.132;5.418;2023-09-12T03:10:40;101417.00;;;17.84;87.29
79729;BME280;69218;52.132;5.418;2023-09-12T03:13:07;101412.69;;;17.83;87.06
79729;BME280;69218;52.132;5.418;2023-09-12T03:15:36;101420.66;;;17.83;88.12
79729;BME280;69218;52.132;5.418;2023-09-12T03:18:04;101414.31;;;17.76;88.74
79729;BME280;69218;52.132;5.418;2023-09-12T03:20:31;101415.59;;;17.72;88.06
79729;BME280;69218;52.132;5.418;2023-09-12T03:22:57;101419.22;;;17.71;87.15
79729;BME280;69218;52.132;5.418;2023-09-12T03:25:24;101421.31;;;17.68;88.01
79729;BME280;69218;52.132;5.418;2023-09-12T03:27:51;101415.19;;;17.67;88.07
79729;BME280;69218;52.132;5.418;2023-09-12T03:30:17;101415.19;;;17.67;86.93
79729;BME280;69218;52.132;5.418;2023-09-12T03:32:46;101415.00;;;17.69;86.74
79729;BME280;69218;52.132;5.418;2023-09-12T03:35:12;101410.56;;;17.69;86.08
79729;BME280;69218;52.132;5.418;2023-09-12T03:37:39;101406.22;;;17.68;86.82
79729;BME280;69218;52.132;5.418;2023-09-12T03:40:09;101401.09;;;17.67;87.87
79729;BME280;69218;52.132;5.418;2023-09-12T03:42:36;101398.38;;;17.58;88.55
79729;BME280;69218;52.132;5.418;2023-09-12T03:45:08;101404.97;;;17.54;88.39
79729;BME280;69218;52.132;5.418;2023-09-12T03:47:35;101410.13;;;17.56;87.93
79729;BME280;69218;52.132;5.418;2023-09-12T03:50:01;101407.16;;;17.59;86.64
79729;BME280;69218;52.132;5.418;2023-09-12T03:52:29;101406.00;;;17.62;87.07
79729;BME280;69218;52.132;5.418;2023-09-12T03:54:56;101405.19;;;17.61;86.36
79729;BME280;69218;52.132;5.418;2023-09-12T03:57:22;101404.22;;;17.62;87.63
79729;BME280;69218;52.132;5.418;2023-09-12T03:59:49;101397.94;;;17.63;88.37
79729;BME280;69218;52.132;5.418;2023-09-12T04:02:17;101406.72;;;17.64;87.88
79729;BME280;69218;52.132;5.418;2023-09-12T04:04:43;101405.06;;;17.63;87.94
79729;BME280;69218;52.132;5.418;2023-09-12T04:07:10;101406.16;;;17.60;88.64
79729;BME280;69218;52.132;5.418;2023-09-12T04:09:37;101400.19;;;17.58;88.18
79729;BME280;69218;52.132;5.418;2023-09-12T04:12:03;101402.53;;;17.61;87.13
79729;BME280;69218;52.132;5.418;2023-09-12T04:14:30;101403.38;;;17.62;87.89
79729;BME280;69218;52.132;5.418;2023-09-12T04:16:57;101404.22;;;17.62;87.57
79729;BME280;69218;52.132;5.418;2023-09-12T04:19:24;101400.03;;;17.60;87.83
79729;BME280;69218;52.132;5.418;2023-09-12T04:21:51;101410.66;;;17.60;88.06
79729;BME280;69218;52.132;5.418;2023-09-12T04:24:17;101400.19;;;17.58;87.97
79729;BME280;69218;52.132;5.418;2023-09-12T04:26:44;101393.41;;;17.55;88.53
79729;BME280;69218;52.132;5.418;2023-09-12T04:29:10;101383.75;;;17.54;90.44
79729;BME280;69218;52.132;5.418;2023-09-12T04:31:37;101378.78;;;17.51;91.08
79729;BME280;69218;52.132;5.418;2023-09-12T04:34:04;101379.94;;;17.49;90.18
79729;BME280;69218;52.132;5.418;2023-09-12T04:36:31;101381.75;;;17.48;88.49
79729;BME280;69218;52.132;5.418;2023-09-12T04:38:57;101386.06;;;17.49;88.02
79729;BME280;69218;52.132;5.418;2023-09-12T04:41:24;101387.88;;;17.49;88.93
79729;BME280;69218;52.132;5.418;2023-09-12T04:43:50;101377.28;;;17.49;89.08
79729;BME280;69218;52.132;5.418;2023-09-12T04:46:17;101377.72;;;17.44;89.08
79729;BME280;69218;52.132;5.418;2023-09-12T04:48:43;101377.06;;;17.42;90.38
79729;BME280;69218;52.132;5.418;2023-09-12T04:51:11;101381.81;;;17.39;89.93
79729;BME280;69218;52.132;5.418;2023-09-12T04:53:37;101382.28;;;17.34;89.78
79729;BME280;69218;52.132;5.418;2023-09-12T04:56:04;101387.06;;;17.30;90.58
79729;BME280;69218;52.132;5.418;2023-09-12T04:58:32;101385.38;;;17.29;90.39
79729;BME280;69218;52.132;5.418;2023-09-12T05:00:59;101389.03;;;17.28;89.65
79729;BME280;69218;52.132;5.418;2023-09-12T05:03:25;101369.50;;;17.29;89.62
79729;BME280;69218;52.132;5.418;2023-09-12T05:05:53;101378.28;;;17.30;89.69
79729;BME280;69218;52.132;5.418;2023-09-12T05:08:19;101377.28;;;17.31;88.25
79729;BME280;69218;52.132;5.418;2023-09-12T05:10:46;101377.13;;;17.33;89.17
79729;BME280;69218;52.132;5.418;2023-09-12T05:13:13;101378.28;;;17.30;89.39
79729;BME280;69218;52.132;5.418;2023-09-12T05:15:40;101370.47;;;17.28;88.91
79729;BME280;69218;52.132;5.418;2023-09-12T05:18:08;101381.91;;;17.29;88.08
79729;BME280;69218;52.132;5.418;2023-09-12T05:20:34;101392.78;;;17.26;88.65
79729;BME280;69218;52.132;5.418;2023-09-12T05:23:01;101395.59;;;17.24;88.60
79729;BME280;69218;52.132;5.418;2023-09-12T05:25:27;101388.81;;;17.22;87.30
79729;BME280;69218;52.132;5.418;2023-09-12T05:27:54;101385.31;;;17.21;87.68
79729;BME280;69218;52.132;5.418;2023-09-12T05:30:21;101395.22;;;17.19;88.06
79729;BME280;69218;52.132;5.418;2023-09-12T05:32:48;101398.84;;;17.18;88.76
79729;BME280;69218;52.132;5.418;2023-09-12T05:35:15;101400.69;;;17.18;89.76
79729;BME280;69218;52.132;5.418;2023-09-12T05:37:48;101393.50;;;17.10;88.70
79729;BME280;69218;52.132;5.418;2023-09-12T05:40:14;101392.66;;;17.10;88.44
79729;BME280;69218;52.132;5.418;2023-09-12T05:42:41;101393.19;;;17.13;87.69
79729;BME280;69218;52.132;5.418;2023-09-12T05:45:08;101393.88;;;17.15;87.74
79729;BME280;69218;52.132;5.418;2023-09-12T05:47:34;101396.38;;;17.17;88.18
79729;BME280;69218;52.132;5.418;2023-09-12T05:50:01;101397.19;;;17.17;88.38
79729;BME280;69218;52.132;5.418;2023-09-12T05:52:32;101397.75;;;17.21;87.84
79729;BME280;69218;52.132;5.418;2023-09-12T05:54:58;101392.13;;;17.24;87.49
79729;BME280;69218;52.132;5.418;2023-09-12T05:57:25;101392.78;;;17.26;89.35
79729;BME280;69218;52.132;5.418;2023-09-12T05:59:51;101390.16;;;17.26;88.10
79729;BME280;69218;52.132;5.418;2023-09-12T06:02:18;101391.69;;;17.28;89.91
79729;BME280;69218;52.132;5.418;2023-09-12T06:04:44;101402.78;;;17.32;88.41
79729;BME280;69218;52.132;5.418;2023-09-12T06:07:11;101406.81;;;17.36;88.20
79729;BME280;69218;52.132;5.418;2023-09-12T06:09:38;101405.50;;;17.40;89.85
79729;BME280;69218;52.132;5.418;2023-09-12T06:12:05;101414.31;;;17.41;89.51
79729;BME280;69218;52.132;5.418;2023-09-12T06:14:31;101421.28;;;17.42;88.91
79729;BME280;69218;52.132;5.418;2023-09-12T06:16:58;101420.81;;;17.46;89.03
79729;BME280;69218;52.132;5.418;2023-09-12T06:19:25;101424.00;;;17.50;90.17
79729;BME280;69218;52.132;5.418;2023-09-12T06:21:51;101426.66;;;17.50;88.28
79729;BME280;69218;52.132;5.418;2023-09-12T06:24:21;101428.00;;;17.54;89.61
79729;BME280;69218;52.132;5.418;2023-09-12T06:26:48;101429.53;;;17.56;89.25
79729;BME280;69218;52.132;5.418;2023-09-12T06:29:14;101429.38;;;17.58;88.72
79729;BME280;69218;52.132;5.418;2023-09-12T06:31:41;101426.56;;;17.60;90.17
79729;BME280;69218;52.132;5.418;2023-09-12T06:34:08;101437.00;;;17.61;90.13
79729;BME280;69218;52.132;5.418;2023-09-12T06:36:38;101434.88;;;17.65;90.32
79729;BME280;69218;52.132;5.418;2023-09-12T06:39:05;101428.16;;;17.70;91.14
79729;BME280;69218;52.132;5.418;2023-09-12T06:41:32;101429.50;;;17.74;91.46
79729;BME280;69218;52.132;5.418;2023-09-12T06:43:58;101432.72;;;17.78;92.24
79729;BME280;69218;52.132;5.418;2023-09-12T06:46:25;101431.56;;;17.80;91.43
79729;BME280;69218;52.132;5.418;2023-09-12T06:48:52;101437.41;;;17.84;92.55
79729;BME280;69218;52.132;5.418;2023-09-12T06:51:23;101433.44;;;17.88;90.97
79729;BME280;69218;52.132;5.418;2023-09-12T06:53:50;101428.50;;;17.93;91.87
79729;BME280;69218;52.132;5.418;2023-09-12T06:56:17;101424.56;;;17.97;91.38
79729;BME280;69218;52.132;5.418;2023-09-12T06:58:44;101436.34;;;18.03;92.95
79729;BME280;69218;52.132;5.418;2023-09-12T07:01:10;101433.06;;;18.09;92.75
79729;BME280;69218;52.132;5.418;2023-09-12T07:03:37;101437.09;;;18.13;92.10
79729;BME280;69218;52.132;5.418;2023-09-12T07:06:04;101438.28;;;18.19;92.85
79729;BME280;69218;52.132;5.418;2023-09-12T07:08:32;101444.09;;;18.22;91.92
79729;BME280;69218;52.132;5.418;2023-09-12T07:10:59;101444.47;;;18.27;92.26
79729;BME280;69218;52.132;5.418;2023-09-12T07:13:32;101447.50;;;18.32;91.63
79729;BME280;69218;52.132;5.418;2023-09-12T07:15:59;101445.00;;;18.39;93.12
79729;BME280;69218;52.132;5.418;2023-09-12T07:18:26;101429.78;;;18.41;92.39
79729;BME280;69218;52.132;5.418;2023-09-12T07:21:01;101426.94;;;18.43;91.98
79729;BME280;69218;52.132;5.418;2023-09-12T07:23:28;101428.63;;;18.44;90.50
79729;BME280;69218;52.132;5.418;2023-09-12T07:25:56;101429.97;;;18.48;90.96
79729;BME280;69218;52.132;5.418;2023-09-12T07:28:24;101439.59;;;18.49;91.05
79729;BME280;69218;52.132;5.418;2023-09-12T07:30:51;101443.75;;;18.51;92.45
79729;BME280;69218;52.132;5.418;2023-09-12T07:33:18;101435.94;;;18.50;89.58
79729;BME280;69218;52.132;5.418;2023-09-12T07:35:45;101435.63;;;18.53;91.38
79729;BME280;69218;52.132;5.418;2023-09-12T07:38:13;101439.25;;;18.52;92.63
79729;BME280;69218;52.132;5.418;2023-09-12T07:40:43;101439.25;;;18.52;91.79
79729;BME280;69218;52.132;5.418;2023-09-12T07:43:09;101441.28;;;18.58;91.78
79729;BME280;69218;52.132;5.418;2023-09-12T07:45:36;101442.31;;;18.65;93.68
79729;BME280;69218;52.132;5.418;2023-09-12T07:48:06;101444.03;;;18.74;93.85
79729;BME280;69218;52.132;5.418;2023-09-12T07:50:33;101443.41;;;18.88;91.64
79729;BME280;69218;52.132;5.418;2023-09-12T07:53:00;101438.47;;;19.10;93.51
79729;BME280;69218;52.132;5.418;2023-09-12T07:55:26;101442.53;;;19.38;91.47
79729;BME280;69218;52.132;5.418;2023-09-12T07:57:57;101431.91;;;19.63;88.88
79729;BME280;69218;52.132;5.418;2023-09-12T08:00:24;101442.91;;;19.76;90.96
79729;BME280;69218;52.132;5.418;2023-09-12T08:02:50;101440.56;;;19.81;88.71
79729;BME280;69218;52.132;5.418;2023-09-12T08:05:17;101447.53;;;19.98;90.33
79729;BME280;69218;52.132;5.418;2023-09-12T08:07:45;101452.81;;;20.15;88.34
79729;BME280;69218;52.132;5.418;2023-09-12T08:10:11;101453.25;;;20.35;90.36
79729;BME280;69218;52.132;5.418;2023-09-12T08:12:38;101456.25;;;20.48;87.13
79729;BME280;69218;52.132;5.418;2023-09-12T08:15:05;101454.91;;;20.52;89.85
79729;BME280;69218;52.132;5.418;2023-09-12T08:17:32;101462.03;;;20.60;86.88
79729;BME280;69218;52.132;5.418;2023-09-12T08:19:59;101463.69;;;20.61;86.53
79729;BME280;69218;52.132;5.418;2023-09-12T08:22:25;101460.00;;;20.70;87.77
79729;BME280;69218;52.132;5.418;2023-09-12T08:24:52;101459.78;;;20.79;87.41
79729;BME280;69218;52.132;5.418;2023-09-12T08:27:18;101459.44;;;20.82;87.47
79729;BME280;69218;52.132;5.418;2023-09-12T08:29:45;101459.56;;;20.89;87.99
79729;BME280;69218;52.132;5.418;2023-09-12T08:32:13;101461.00;;;21.00;86.97
79729;BME280;69218;52.132;5.418;2023-09-12T08:34:40;101462.25;;;21.12;86.55
79729;BME280;69218;52.132;5.418;2023-09-12T08:37:06;101468.88;;;21.24;86.74
79729;BME280;69218;52.132;5.418;2023-09-12T08:39:41;101467.03;;;21.25;85.20
79729;BME280;69218;52.132;5.418;2023-09-12T08:42:14;101463.31;;;21.34;84.90
79729;BME280;69218;52.132;5.418;2023-09-12T08:44:42;101462.81;;;21.38;85.40
79729;BME280;69218;52.132;5.418;2023-09-12T08:47:09;101462.84;;;21.53;85.81
79729;BME280;69218;52.132;5.418;2023-09-12T08:49:37;101460.88;;;21.70;84.41
79729;BME280;69218;52.132;5.418;2023-09-12T08:52:05;101460.63;;;21.80;85.76
79729;BME280;69218;52.132;5.418;2023-09-12T08:54:32;101462.03;;;21.90;84.97
79729;BME280;69218;52.132;5.418;2023-09-12T08:57:07;101459.66;;;21.96;82.51
79729;BME280;69218;52.132;5.418;2023-09-12T08:59:34;101456.16;;;21.95;81.52
79729;BME280;69218;52.132;5.418;2023-09-12T09:02:02;101448.22;;;21.87;81.70
79729;BME280;69218;52.132;5.418;2023-09-12T09:04:32;101456.41;;;21.85;83.00
79729;BME280;69218;52.132;5.418;2023-09-12T09:06:59;101450.91;;;22.02;82.19
79729;BME280;69218;52.132;5.418;2023-09-12T09:09:27;101457.94;;;22.17;83.18
79729;BME280;69218;52.132;5.418;2023-09-12T09:11:56;101454.16;;;22.27;80.44
79729;BME280;69218;52.132;5.418;2023-09-12T09:14:23;101459.25;;;22.22;82.13
79729;BME280;69218;52.132;5.418;2023-09-12T09:16:50;101461.34;;;22.41;81.89
79729;BME280;69218;52.132;5.418;2023-09-12T09:19:17;101461.53;;;22.54;78.81
79729;BME280;69218;52.132;5.418;2023-09-12T09:21:45;101455.53;;;22.67;79.50
79729;BME280;69218;52.132;5.418;2023-09-12T09:24:14;101464.34;;;22.82;79.72
79729;BME280;69218;52.132;5.418;2023-09-12T09:29:16;101468.06;;;22.81;78.52
79729;BME280;69218;52.132;5.418;2023-09-12T09:31:45;101465.31;;;22.89;80.10
79729;BME280;69218;52.132;5.418;2023-09-12T09:34:13;101477.94;;;22.95;77.85
79729;BME280;69218;52.132;5.418;2023-09-12T09:36:50;101475.88;;;22.83;78.48
79729;BME280;69218;52.132;5.418;2023-09-12T09:39:20;101473.13;;;22.76;79.28
79729;BME280;69218;52.132;5.418;2023-09-12T09:41:52;101471.03;;;22.71;78.21
79729;BME280;69218;52.132;5.418;2023-09-12T09:44:21;101474.88;;;22.69;78.11
79729;BME280;69218;52.132;5.418;2023-09-12T09:46:51;101473.41;;;22.81;78.32
79729;BME280;69218;52.132;5.418;2023-09-12T09:49:21;101473.59;;;22.80;77.33
79729;BME280;69218;52.132;5.418;2023-09-12T09:51:48;101468.16;;;22.73;77.76
79729;BME280;69218;52.132;5.418;2023-09-12T09:54:14;101484.00;;;22.74;77.32
79729;BME280;69218;52.132;5.418;2023-09-12T09:56:49;101478.56;;;22.68;77.79
79729;BME280;69218;52.132;5.418;2023-09-12T09:59:17;101472.78;;;22.79;78.92
79729;BME280;69218;52.132;5.418;2023-09-12T10:01:45;101478.50;;;22.91;78.09
79729;BME280;69218;52.132;5.418;2023-09-12T10:04:12;101477.50;;;22.92;77.84
79729;BME280;69218;52.132;5.418;2023-09-12T10:06:43;101478.41;;;22.99;77.61
79729;BME280;69218;52.132;5.418;2023-09-12T10:09:12;101485.13;;;22.95;77.71
79729;BME280;69218;52.132;5.418;2023-09-12T10:11:43;101489.22;;;22.91;77.39
79729;BME280;69218;52.132;5.418;2023-09-12T10:14:20;101493.25;;;22.87;77.33
79729;BME280;69218;52.132;5.418;2023-09-12T10:16:50;101492.03;;;22.89;75.86
79729;BME280;69218;52.132;5.418;2023-09-12T10:19:20;101486.53;;;22.91;76.31
79729;BME280;69218;52.132;5.418;2023-09-12T10:24:35;101495.25;;;22.85;77.78
79729;BME280;69218;52.132;5.418;2023-09-12T10:27:02;101487.25;;;22.85;77.07
79729;BME280;69218;52.132;5.418;2023-09-12T10:29:30;101484.72;;;22.83;75.87
79729;BME280;69218;52.132;5.418;2023-09-12T10:31:57;101474.34;;;22.88;75.81
79729;BME280;69218;52.132;5.418;2023-09-12T10:34:27;101469.94;;;23.17;76.64
79729;BME280;69218;52.132;5.418;2023-09-12T10:36:55;101469.13;;;23.38;73.60
79729;BME280;69218;52.132;5.418;2023-09-12T10:39:22;101465.47;;;23.45;73.86
79729;BME280;69218;52.132;5.418;2023-09-12T10:41:51;101470.28;;;23.71;71.25
79729;BME280;69218;52.132;5.418;2023-09-12T10:44:18;101473.44;;;23.81;71.10
79729;BME280;69218;52.132;5.418;2023-09-12T10:46:46;101480.34;;;23.91;71.12
79729;BME280;69218;52.132;5.418;2023-09-12T10:49:14;101472.34;;;23.97;71.04
79729;BME280;69218;52.132;5.418;2023-09-12T10:51:42;101480.72;;;24.16;69.78
79729;BME280;69218;52.132;5.418;2023-09-12T10:54:13;101484.06;;;24.24;70.07
79729;BME280;69218;52.132;5.418;2023-09-12T10:56:40;101484.63;;;24.13;69.70
79729;BME280;69218;52.132;5.418;2023-09-12T11:01:36;101483.06;;;24.25;70.07
79729;BME280;69218;52.132;5.418;2023-09-12T11:06:46;101484.31;;;24.01;71.04
79729;BME280;69218;52.132;5.418;2023-09-12T11:11:45;101494.69;;;23.83;71.94
79729;BME280;69218;52.132;5.418;2023-09-12T11:14:17;101481.91;;;24.06;71.90
79729;BME280;69218;52.132;5.418;2023-09-12T11:19:45;101460.94;;;24.51;68.67
79729;BME280;69218;52.132;5.418;2023-09-12T11:22:26;101458.97;;;24.73;67.42
79729;BME280;69218;52.132;5.418;2023-09-12T11:24:53;101454.69;;;24.85;65.15
79729;BME280;69218;52.132;5.418;2023-09-12T11:27:24;101437.00;;;24.98;65.09
79729;BME280;69218;52.132;5.418;2023-09-12T11:29:51;101441.59;;;25.04;64.27
79729;BME280;69218;52.132;5.418;2023-09-12T11:32:31;101448.97;;;25.02;65.13
79729;BME280;69218;52.132;5.418;2023-09-12T11:34:59;101440.56;;;25.05;65.04
79729;BME280;69218;52.132;5.418;2023-09-12T11:37:26;101444.59;;;24.94;65.93
79729;BME280;69218;52.132;5.418;2023-09-12T11:39:55;101438.84;;;24.90;65.34
79729;BME280;69218;52.132;5.418;2023-09-12T11:42:24;101440.06;;;24.94;66.40
79729;BME280;69218;52.132;5.418;2023-09-12T11:44:53;101446.44;;;24.87;65.41
79729;BME280;69218;52.132;5.418;2023-09-12T11:47:20;101438.84;;;24.90;66.50
79729;BME280;69218;52.132;5.418;2023-09-12T11:49:48;101451.66;;;25.02;66.66
79729;BME280;69218;52.132;5.418;2023-09-12T11:52:15;101440.97;;;25.15;66.10
79729;BME280;69218;52.132;5.418;2023-09-12T11:54:47;101454.22;;;25.30;64.68
79729;BME280;69218;52.132;5.418;2023-09-12T11:57:15;101436.28;;;25.30;63.77
79729;BME280;69218;52.132;5.418;2023-09-12T11:59:46;101439.16;;;25.35;64.33
79729;BME280;69218;52.132;5.418;2023-09-12T12:02:15;101448.66;;;25.51;63.57
79729;BME280;69218;52.132;5.418;2023-09-12T12:04:42;101451.00;;;25.81;62.81
79729;BME280;69218;52.132;5.418;2023-09-12T12:07:10;101443.50;;;26.02;62.32
79729;BME280;69218;52.132;5.418;2023-09-12T12:09:37;101446.81;;;26.11;62.40
79729;BME280;69218;52.132;5.418;2023-09-12T12:14:35;101443.28;;;26.17;63.09
79729;BME280;69218;52.132;5.418;2023-09-12T12:17:06;101440.00;;;26.09;62.80
79729;BME280;69218;52.132;5.418;2023-09-12T12:19:34;101440.63;;;25.84;60.03
79729;BME280;69218;52.132;5.418;2023-09-12T12:22:04;101431.50;;;26.12;62.75
79729;BME280;69218;52.132;5.418;2023-09-12T12:24:39;101423.75;;;26.48;59.05
79729;BME280;69218;52.132;5.418;2023-09-12T12:27:06;101422.63;;;26.69;59.22
79729;BME280;69218;52.132;5.418;2023-09-12T12:29:35;101423.75;;;26.93;58.53
79729;BME280;69218;52.132;5.418;2023-09-12T12:32:03;101425.38;;;27.07;58.20
79729;BME280;69218;52.132;5.418;2023-09-12T12:34:31;101417.06;;;27.02;55.85
79729;BME280;69218;52.132;5.418;2023-09-12T12:37:19;101421.06;;;26.93;56.76
79729;BME280;69218;52.132;5.418;2023-09-12T12:39:46;101412.75;;;27.01;55.85
79729;BME280;69218;52.132;5.418;2023-09-12T12:42:12;101427.38;;;27.12;58.34
79729;BME280;69218;52.132;5.418;2023-09-12T12:44:39;101404.75;;;27.20;55.26
79729;BME280;69218;52.132;5.418;2023-09-12T12:47:08;101409.34;;;27.44;56.32
79729;BME280;69218;52.132;5.418;2023-09-12T12:49:39;101403.84;;;27.57;54.60
79729;BME280;69218;52.132;5.418;2023-09-12T12:52:06;101407.41;;;27.51;56.63
79729;BME280;69218;52.132;5.418;2023-09-12T12:54:35;101406.38;;;27.52;54.88
79729;BME280;69218;52.132;5.418;2023-09-12T12:57:02;101409.72;;;27.48;55.48
79729;BME280;69218;52.132;5.418;2023-09-12T12:59:29;101414.44;;;27.52;53.83
79729;BME280;69218;52.132;5.418;2023-09-12T13:02:02;101406.97;;;27.29;55.28
79729;BME280;69218;52.132;5.418;2023-09-12T13:04:36;101408.44;;;27.25;54.93
79729;BME280;69218;52.132;5.418;2023-09-12T13:07:04;101418.72;;;27.10;56.62
79729;BME280;69218;52.132;5.418;2023-09-12T13:09:31;101417.28;;;27.01;55.85
79729;BME280;69218;52.132;5.418;2023-09-12T13:11:57;101420.66;;;26.90;56.49